createdAt,value
2022-08-30T00:01:17.083Z,26.37
2022-08-30T00:03:47.248Z,26.53
2022-08-30T00:06:19.863Z,26.53
2022-08-30T00:08:51.927Z,26.42
2022-08-30T00:11:25.760Z,26.22
2022-08-30T00:13:56.139Z,26.04
2022-08-30T00:16:27.331Z,25.93
2022-08-30T00:18:56.334Z,25.78
2022-08-30T00:21:24.479Z,25.98
2022-08-30T00:23:52.449Z,26.29
2022-08-30T00:26:20.475Z,26.39
2022-08-30T00:28:51.324Z,26.30
2022-08-30T00:31:19.261Z,26.20
2022-08-30T00:33:47.283Z,26.02
2022-08-30T00:36:16.483Z,25.86
2022-08-30T00:38:44.417Z,25.71
2022-08-30T00:41:12.529Z,25.52
2022-08-30T00:43:44.730Z,25.66
2022-08-30T00:46:12.593Z,25.99
2022-08-30T00:48:43.991Z,26.15
2022-08-30T00:51:14.865Z,26.14
2022-08-30T00:53:48.905Z,26.02
2022-08-30T00:56:18.525Z,25.91
2022-08-30T00:58:51.114Z,25.77
2022-08-30T01:01:24.704Z,25.62
2022-08-30T01:03:53.932Z,25.40
2022-08-30T01:06:24.384Z,25.50
2022-08-30T01:09:03.401Z,25.88
2022-08-30T01:11:36.410Z,26.01
2022-08-30T01:14:07.323Z,26.01
2022-08-30T01:16:39.894Z,25.87
2022-08-30T01:19:37.013Z,25.69
2022-08-30T01:22:24.163Z,25.50
2022-08-30T01:24:56.622Z,25.13
2022-08-30T01:27:28.888Z,25.36
2022-08-30T01:30:00.391Z,25.70
2022-08-30T01:32:34.258Z,25.81
2022-08-30T01:35:02.518Z,25.72
2022-08-30T01:37:33.578Z,25.54
2022-08-30T01:40:02.849Z,25.37
2022-08-30T01:42:33.057Z,25.17
2022-08-30T01:45:00.867Z,24.96
2022-08-30T01:47:30.378Z,25.11
2022-08-30T01:49:58.847Z,25.35
2022-08-30T01:52:27.685Z,25.44
2022-08-30T01:54:55.616Z,25.40
2022-08-30T01:57:27.188Z,25.27
2022-08-30T01:59:57.765Z,25.11
2022-08-30T02:02:29.470Z,24.99
2022-08-30T02:05:05.359Z,24.77
2022-08-30T02:07:33.583Z,24.99
2022-08-30T02:10:01.506Z,25.28
2022-08-30T02:12:33.712Z,25.44
2022-08-30T02:15:02.964Z,25.37
2022-08-30T02:17:30.861Z,25.18
2022-08-30T02:20:05.019Z,24.97
2022-08-30T02:22:33.161Z,24.80
2022-08-30T02:25:03.302Z,24.60
2022-08-30T02:27:33.901Z,24.81
2022-08-30T02:30:10.234Z,25.16
2022-08-30T02:32:38.175Z,25.27
2022-08-30T02:35:06.777Z,25.13
2022-08-30T02:37:37.738Z,24.98
2022-08-30T02:40:10.336Z,24.80
2022-08-30T02:42:46.125Z,24.59
2022-08-30T02:45:15.818Z,24.78
2022-08-30T02:47:47.067Z,25.07
2022-08-30T02:50:18.317Z,25.11
2022-08-30T02:52:48.364Z,25.02
2022-08-30T02:55:17.262Z,24.81
2022-08-30T02:57:45.409Z,24.59
2022-08-30T03:00:17.091Z,24.39
2022-08-30T03:02:44.716Z,24.56
2022-08-30T03:05:14.761Z,24.80
2022-08-30T03:07:43.427Z,24.90
2022-08-30T03:10:13.976Z,24.85
2022-08-30T03:12:43.055Z,24.73
2022-08-30T03:15:13.705Z,24.60
2022-08-30T03:17:42.541Z,24.30
2022-08-30T03:20:15.631Z,24.48
2022-08-30T03:22:43.429Z,24.89
2022-08-30T03:25:15.823Z,25.12
2022-08-30T03:27:43.732Z,25.15
2022-08-30T03:30:13.267Z,25.05
2022-08-30T03:32:42.073Z,24.91
2022-08-30T03:35:17.134Z,24.67
2022-08-30T03:37:49.938Z,24.88
2022-08-30T03:40:26.025Z,25.10
2022-08-30T03:42:56.196Z,25.09
2022-08-30T03:45:24.632Z,24.97
2022-08-30T03:47:52.834Z,24.81
2022-08-30T03:50:20.752Z,24.70
2022-08-30T03:52:49.422Z,24.55
2022-08-30T03:55:20.139Z,24.81
2022-08-30T03:57:51.051Z,25.19
2022-08-30T04:00:22.522Z,25.33
2022-08-30T04:02:51.618Z,25.33
2022-08-30T04:05:22.711Z,25.22
2022-08-30T04:07:50.676Z,25.21
2022-08-30T04:10:21.425Z,24.98
2022-08-30T04:12:51.372Z,25.29
2022-08-30T04:15:21.025Z,25.63
2022-08-30T04:17:53.900Z,25.77
2022-08-30T04:20:22.798Z,25.83
2022-08-30T04:22:54.737Z,25.77
2022-08-30T04:25:22.689Z,25.71
2022-08-30T04:27:50.731Z,25.51
2022-08-30T04:30:18.802Z,25.81
2022-08-30T04:32:48.366Z,26.21
2022-08-30T04:35:19.208Z,26.33
2022-08-30T04:37:50.359Z,26.42
2022-08-30T04:40:19.833Z,26.37
2022-08-30T04:42:54.660Z,26.29
2022-08-30T04:45:25.056Z,26.16
2022-08-30T04:47:56.374Z,25.97
2022-08-30T04:50:28.218Z,26.30
2022-08-30T04:52:56.060Z,26.69
2022-08-30T04:55:29.025Z,26.81
2022-08-30T04:58:00.941Z,26.90
2022-08-30T05:00:33.227Z,26.83
2022-08-30T05:03:02.060Z,26.77
2022-08-30T05:05:42.955Z,26.64
2022-08-30T05:08:16.125Z,26.60
2022-08-30T05:10:54.361Z,26.60
2022-08-30T05:13:35.488Z,27.08
2022-08-30T05:16:08.151Z,27.53
2022-08-30T05:18:37.942Z,27.71
2022-08-30T05:21:09.799Z,27.79
2022-08-30T05:23:42.875Z,27.69
2022-08-30T05:26:14.979Z,27.53
2022-08-30T05:28:43.891Z,27.59
2022-08-30T05:31:22.264Z,27.76
2022-08-30T05:33:51.598Z,28.65
2022-08-30T05:36:22.261Z,29.67
2022-08-30T05:38:54.825Z,30.94
2022-08-30T05:41:28.966Z,32.54
2022-08-30T05:43:59.231Z,33.87
2022-08-30T05:49:08.038Z,36.18
2022-08-30T05:51:42.955Z,37.12
2022-08-30T05:54:16.969Z,38.15
2022-08-30T05:56:51.161Z,38.69
2022-08-30T05:59:19.411Z,39.41
2022-08-30T06:01:48.715Z,39.95
2022-08-30T06:04:17.729Z,40.35
2022-08-30T06:06:48.628Z,40.58
2022-08-30T06:09:16.432Z,40.87
2022-08-30T06:11:50.745Z,41.61
2022-08-30T06:14:18.789Z,42.01
2022-08-30T06:16:48.109Z,42.24
2022-08-30T06:19:17.691Z,42.63
2022-08-30T06:21:51.788Z,42.81
2022-08-30T06:24:27.791Z,42.68
2022-08-30T06:27:08.431Z,42.08
2022-08-30T06:29:40.984Z,40.87
2022-08-30T06:32:09.669Z,39.40
2022-08-30T06:34:41.430Z,37.88
2022-08-30T06:37:09.389Z,36.25
2022-08-30T06:39:37.271Z,35.23
2022-08-30T06:42:05.989Z,34.44
2022-08-30T06:44:36.376Z,33.86
2022-08-30T06:47:08.551Z,33.32
2022-08-30T06:49:36.609Z,32.75
2022-08-30T06:52:05.089Z,32.28
2022-08-30T06:54:33.489Z,31.96
2022-08-30T06:57:04.449Z,31.60
2022-08-30T06:59:34.301Z,31.29
2022-08-30T07:02:03.533Z,30.81
2022-08-30T07:04:34.089Z,30.46
2022-08-30T07:07:02.255Z,30.27
2022-08-30T07:12:04.550Z,29.91
2022-08-30T07:14:37.890Z,29.82
2022-08-30T07:17:32.604Z,29.77
2022-08-30T07:20:06.490Z,29.61
2022-08-30T07:22:34.690Z,29.51
2022-08-30T07:25:03.270Z,29.45
2022-08-30T07:27:36.009Z,29.42
2022-08-30T07:30:06.010Z,29.47
2022-08-30T07:32:34.350Z,29.36
2022-08-30T07:35:02.371Z,29.30
2022-08-30T07:37:33.031Z,29.26
2022-08-30T07:40:01.205Z,29.16
2022-08-30T07:42:31.990Z,29.08
2022-08-30T07:45:03.769Z,29.03
2022-08-30T07:47:38.469Z,29.02
2022-08-30T07:50:07.971Z,29.01
2022-08-30T07:55:10.490Z,29.05
2022-08-30T07:57:38.621Z,28.91
2022-08-30T08:00:09.049Z,28.94
2022-08-30T08:02:43.009Z,28.98
2022-08-30T08:05:17.059Z,29.04
2022-08-30T08:07:47.101Z,29.05
2022-08-30T08:10:16.978Z,28.98
2022-08-30T08:12:46.818Z,29.01
2022-08-30T08:15:14.862Z,29.03
2022-08-30T08:17:45.852Z,29.12
2022-08-30T08:20:20.345Z,29.23
2022-08-30T08:22:51.180Z,29.18
2022-08-30T08:25:22.470Z,29.20
2022-08-30T08:27:57.715Z,29.12
2022-08-30T08:30:27.903Z,29.17
2022-08-30T08:32:58.317Z,29.12
2022-08-30T08:35:29.289Z,29.11
2022-08-30T08:38:01.690Z,29.20
2022-08-30T08:40:33.583Z,29.23
2022-08-30T08:43:09.530Z,29.19
2022-08-30T08:45:49.593Z,29.22
2022-08-30T08:48:45.531Z,29.21
2022-08-30T08:51:40.030Z,29.30
2022-08-30T08:54:22.229Z,29.38
2022-08-30T08:56:52.730Z,29.35
2022-08-30T08:59:21.009Z,29.36
2022-08-30T09:01:52.209Z,29.37
2022-08-30T09:04:29.020Z,29.41
2022-08-30T09:07:11.292Z,29.43
2022-08-30T09:09:46.349Z,29.43
2022-08-30T09:12:21.249Z,29.49
2022-08-30T09:14:55.815Z,29.54
2022-08-30T09:17:24.516Z,29.64
2022-08-30T09:19:56.429Z,29.68
2022-08-30T09:22:38.446Z,29.72
2022-08-30T09:25:12.660Z,29.66
2022-08-30T09:27:48.660Z,29.68
2022-08-30T09:30:24.467Z,29.65
2022-08-30T09:32:57.931Z,29.61
2022-08-30T09:35:38.611Z,29.50
2022-08-30T09:38:15.693Z,29.39
2022-08-30T09:40:47.965Z,29.44
2022-08-30T09:43:21.102Z,29.40
2022-08-30T09:46:09.621Z,29.35
2022-08-30T09:48:44.991Z,29.41
2022-08-30T09:51:14.015Z,29.35
2022-08-30T09:56:52.082Z,29.22
2022-08-30T09:59:40.581Z,29.23
2022-08-30T10:02:39.970Z,29.12
2022-08-30T10:05:26.839Z,29.11
2022-08-30T10:08:03.975Z,29.10
2022-08-30T10:10:51.908Z,29.12
2022-08-30T10:13:50.373Z,29.07
2022-08-30T10:16:36.663Z,29.11
2022-08-30T10:19:39.223Z,29.14
2022-08-30T10:22:33.940Z,29.21
2022-08-30T10:25:24.718Z,29.21
2022-08-30T10:28:02.878Z,29.22
2022-08-30T10:30:38.429Z,29.24
2022-08-30T10:33:19.820Z,29.25
2022-08-30T10:36:02.280Z,29.29
2022-08-30T10:39:05.139Z,29.29
2022-08-30T10:41:46.731Z,29.27
2022-08-30T10:44:32.546Z,29.28
2022-08-30T10:47:01.932Z,29.37
2022-08-30T10:49:36.966Z,29.36
2022-08-30T10:52:15.469Z,29.35
2022-08-30T10:54:50.989Z,29.39
2022-08-30T10:57:20.330Z,29.40
2022-08-30T10:59:54.879Z,29.44
2022-08-30T11:02:33.300Z,29.48
2022-08-30T11:05:15.328Z,29.49
2022-08-30T11:08:01.179Z,29.55
2022-08-30T11:10:58.129Z,29.62
2022-08-30T11:13:31.960Z,29.76
2022-08-30T11:16:19.590Z,29.76
2022-08-30T11:18:58.608Z,29.76
2022-08-30T11:21:43.208Z,29.76
2022-08-30T11:24:21.121Z,29.77
2022-08-30T11:27:00.137Z,29.65
2022-08-30T11:29:36.071Z,29.69
2022-08-30T11:32:13.069Z,29.72
2022-08-30T11:34:53.588Z,29.80
2022-08-30T11:37:43.452Z,29.86
2022-08-30T11:40:36.171Z,29.85
2022-08-30T11:43:40.402Z,29.79
2022-08-30T11:46:29.683Z,29.87
2022-08-30T11:49:36.219Z,29.88
2022-08-30T11:52:41.569Z,29.93
2022-08-30T11:55:34.932Z,29.95
2022-08-30T11:58:22.168Z,29.92
2022-08-30T12:01:40.840Z,29.99
2022-08-30T12:04:15.282Z,29.93
2022-08-30T12:06:50.546Z,29.84
2022-08-30T12:09:26.711Z,29.82
2022-08-30T12:12:03.309Z,29.84
2022-08-30T12:14:36.168Z,29.86
2022-08-30T12:17:32.291Z,29.97
2022-08-30T12:20:01.129Z,30.03
2022-08-30T12:22:38.309Z,30.06
2022-08-30T12:25:18.548Z,29.99
2022-08-30T12:28:20.449Z,30.00
2022-08-30T12:31:07.048Z,29.95
2022-08-30T12:33:48.290Z,29.93
2022-08-30T12:36:37.538Z,29.96
2022-08-30T12:39:19.580Z,29.95
2022-08-30T12:41:57.949Z,29.94
2022-08-30T12:44:30.221Z,29.91
2022-08-30T12:47:03.608Z,29.94
2022-08-30T12:49:42.690Z,29.92
2022-08-30T12:52:25.768Z,29.98
2022-08-30T12:55:19.565Z,29.96
2022-08-30T12:58:00.773Z,30.02
2022-08-30T13:00:34.084Z,30.13
2022-08-30T13:03:30.119Z,30.22
2022-08-30T13:05:59.520Z,30.20
2022-08-30T13:08:47.119Z,30.18
2022-08-30T13:11:33.762Z,30.15
2022-08-30T13:14:33.100Z,30.16
2022-08-30T13:17:23.759Z,30.20
2022-08-30T13:20:06.503Z,30.28
2022-08-30T13:22:36.592Z,30.30
2022-08-30T13:25:08.669Z,30.35
2022-08-30T13:27:43.981Z,30.40
2022-08-30T13:30:16.658Z,30.46
2022-08-30T13:32:45.879Z,30.41
2022-08-30T13:35:15.681Z,30.49
2022-08-30T13:37:49.464Z,30.36
2022-08-30T13:40:25.771Z,30.32
2022-08-30T13:42:54.460Z,30.34
2022-08-30T13:45:43.418Z,30.35
2022-08-30T13:48:25.024Z,30.23
2022-08-30T13:50:57.504Z,30.29
2022-08-30T13:56:15.364Z,30.41
2022-08-30T13:58:45.032Z,30.45
2022-08-30T14:01:16.469Z,30.37
2022-08-30T14:06:34.352Z,30.39
2022-08-30T14:09:05.309Z,30.39
2022-08-30T14:11:35.472Z,30.32
2022-08-30T14:14:32.326Z,30.26
2022-08-30T14:16:54.253Z,30.30
2022-08-30T14:19:22.333Z,30.11
2022-08-30T14:21:50.435Z,30.15
2022-08-30T14:24:21.587Z,30.11
2022-08-30T14:26:54.769Z,30.15
2022-08-30T14:29:25.297Z,30.18
2022-08-30T14:32:00.418Z,30.12
2022-08-30T14:34:32.789Z,30.13
2022-08-30T14:37:03.675Z,30.15
2022-08-30T14:39:32.913Z,30.12
2022-08-30T14:42:03.450Z,30.10
2022-08-30T14:44:55.211Z,30.03
2022-08-30T14:47:28.784Z,29.93
2022-08-30T14:50:02.527Z,29.92
2022-08-30T14:52:32.443Z,29.91
2022-08-30T14:55:08.853Z,29.86
2022-08-30T14:57:38.959Z,29.86
2022-08-30T15:00:11.225Z,29.88
2022-08-30T15:02:39.656Z,29.81
2022-08-30T15:05:12.289Z,29.78
2022-08-30T15:07:45.424Z,29.71
2022-08-30T15:10:19.989Z,29.62
2022-08-30T15:12:54.039Z,29.48
2022-08-30T15:15:23.664Z,29.37
2022-08-30T15:17:58.087Z,29.32
2022-08-30T15:20:30.457Z,29.31
2022-08-30T15:22:58.657Z,29.28
2022-08-30T15:25:29.820Z,29.19
2022-08-30T15:27:58.657Z,29.16
2022-08-30T15:30:26.737Z,29.17
2022-08-30T15:32:57.337Z,29.11
2022-08-30T15:35:25.378Z,29.09
2022-08-30T15:37:56.017Z,29.05
2022-08-30T15:40:28.620Z,29.00
2022-08-30T15:42:56.897Z,28.93
2022-08-30T15:45:27.579Z,28.85
2022-08-30T15:47:55.698Z,28.76
2022-08-30T15:50:24.737Z,28.71
2022-08-30T15:52:53.278Z,28.64
2022-08-30T15:55:21.301Z,28.60
2022-08-30T15:57:50.024Z,28.54
2022-08-30T16:00:19.629Z,28.48
2022-08-30T16:02:52.121Z,28.43
2022-08-30T16:05:21.899Z,28.39
2022-08-30T16:07:55.132Z,28.34
2022-08-30T16:10:23.399Z,28.28
2022-08-30T16:12:51.357Z,28.23
2022-08-30T16:15:20.471Z,28.14
2022-08-30T16:17:51.298Z,28.03
2022-08-30T16:20:19.934Z,27.98
2022-08-30T16:22:48.457Z,27.94
2022-08-30T16:25:23.261Z,27.84
2022-08-30T16:27:53.838Z,27.68
2022-08-30T16:30:22.278Z,27.56
2022-08-30T16:32:50.718Z,27.44
2022-08-30T16:35:21.837Z,27.35
2022-08-30T16:37:50.018Z,27.25
2022-08-30T16:40:24.610Z,27.17
2022-08-30T16:42:56.619Z,27.06
2022-08-30T16:45:27.693Z,26.96
2022-08-30T16:47:59.949Z,26.88
2022-08-30T16:50:27.798Z,26.77
2022-08-30T16:52:59.538Z,26.68
2022-08-30T16:55:28.237Z,26.60
2022-08-30T16:57:58.777Z,26.51
2022-08-30T17:00:28.118Z,26.43
2022-08-30T17:03:00.098Z,26.34
2022-08-30T17:05:34.157Z,26.25
2022-08-30T17:08:03.388Z,26.17
2022-08-30T17:10:33.481Z,26.10
2022-08-30T17:13:02.657Z,26.02
2022-08-30T17:15:33.937Z,25.95
2022-08-30T17:18:04.990Z,25.88
2022-08-30T17:20:38.797Z,25.79
2022-08-30T17:23:12.437Z,25.75
2022-08-30T17:25:45.296Z,25.73
2022-08-30T17:28:13.597Z,25.70
2022-08-30T17:30:44.071Z,25.66
2022-08-30T17:33:15.478Z,25.67
2022-08-30T17:35:49.237Z,25.63
2022-08-30T17:38:19.313Z,25.61
2022-08-30T17:40:48.365Z,25.54
2022-08-30T17:43:16.897Z,25.48
2022-08-30T17:45:44.937Z,25.43
2022-08-30T17:48:20.678Z,25.39
2022-08-30T17:51:00.598Z,25.35
2022-08-30T17:53:32.072Z,25.32
2022-08-30T17:56:05.297Z,25.27
2022-08-30T17:58:39.599Z,25.20
2022-08-30T18:01:19.312Z,25.15
2022-08-30T18:03:57.138Z,25.10
2022-08-30T18:06:36.517Z,25.06
2022-08-30T18:09:11.817Z,25.03
2022-08-30T18:11:40.816Z,25.02
2022-08-30T18:14:14.777Z,24.99
2022-08-30T18:16:53.302Z,24.94
2022-08-30T18:19:30.937Z,24.91
2022-08-30T18:21:59.737Z,24.86
2022-08-30T18:24:39.549Z,24.84
2022-08-30T18:28:17.589Z,24.79
2022-08-30T18:30:45.497Z,24.77
2022-08-30T18:33:14.757Z,24.77
2022-08-30T18:38:36.138Z,24.72
2022-08-30T18:41:08.051Z,24.71
2022-08-30T18:43:37.677Z,24.68
2022-08-30T18:46:09.478Z,24.65
2022-08-30T18:48:39.821Z,24.62
2022-08-30T18:51:21.659Z,24.62
2022-08-30T20:24:27.445Z,24.74
